createdAt,value
2018-05-02T00:01:34.018Z,6.07
2018-05-02T00:04:00.070Z,5.17
2018-05-02T00:06:26.155Z,6.40
2018-05-02T00:08:53.013Z,5.90
2018-05-02T00:11:19.898Z,5.90
2018-05-02T00:13:46.016Z,5.97
2018-05-02T00:16:12.199Z,5.33
2018-05-02T00:18:38.280Z,5.50
2018-05-02T00:21:04.370Z,4.90
2018-05-02T00:23:30.484Z,4.93
2018-05-02T00:25:56.587Z,5.90
2018-05-02T00:28:23.464Z,5.40
2018-05-02T00:30:49.579Z,5.77
2018-05-02T00:33:16.388Z,5.37
2018-05-02T00:35:42.492Z,5.47
2018-05-02T00:38:08.599Z,5.10
2018-05-02T00:40:35.434Z,5.70
2018-05-02T00:43:01.512Z,5.50
2018-05-02T00:45:28.410Z,5.67
2018-05-02T00:47:54.537Z,5.57
2018-05-02T00:50:20.631Z,5.17
2018-05-02T00:52:47.566Z,5.43
2018-05-02T00:55:13.768Z,5.80
2018-05-02T00:57:39.871Z,5.27
2018-05-02T01:00:06.724Z,5.70
2018-05-02T01:02:33.538Z,5.60
2018-05-02T01:04:59.606Z,5.17
2018-05-02T01:07:40.760Z,5.93
2018-05-02T01:10:06.851Z,5.67
2018-05-02T01:12:33.678Z,5.90
2018-05-02T01:14:59.810Z,5.47
2018-05-02T01:17:25.914Z,5.90
2018-05-02T01:19:52.066Z,5.20
2018-05-02T01:22:18.218Z,6.30
2018-05-02T01:24:44.294Z,5.93
2018-05-02T01:27:11.099Z,5.47
2018-05-02T01:29:37.994Z,6.00
2018-05-02T01:32:04.806Z,5.90
2018-05-02T01:34:30.874Z,5.50
2018-05-02T01:36:57.028Z,5.77
2018-05-02T01:39:23.121Z,5.50
2018-05-02T01:41:49.186Z,6.20
2018-05-02T01:44:15.306Z,5.53
2018-05-02T01:46:41.369Z,5.77
2018-05-02T01:49:20.629Z,5.90
2018-05-02T01:51:47.429Z,6.40
2018-05-02T01:54:13.486Z,5.47
2018-05-02T01:56:39.576Z,5.97
2018-05-02T01:59:05.676Z,6.03
2018-05-02T02:01:31.758Z,6.30
2018-05-02T02:03:57.907Z,6.43
2018-05-02T02:06:23.965Z,6.87
2018-05-02T02:08:50.038Z,6.47
2018-05-02T02:11:16.871Z,6.40
2018-05-02T02:13:42.955Z,6.40
2018-05-02T02:16:09.072Z,5.67
2018-05-02T02:18:35.897Z,6.00
2018-05-02T02:21:01.971Z,5.70
2018-05-02T02:23:28.056Z,6.40
2018-05-02T02:25:54.142Z,6.60
2018-05-02T02:28:20.954Z,7.30
2018-05-02T02:30:47.046Z,6.50
2018-05-02T02:33:13.136Z,7.00
2018-05-02T02:35:39.224Z,7.20
2018-05-02T02:38:05.286Z,7.40
2018-05-02T02:40:31.391Z,7.27
2018-05-02T02:42:57.464Z,7.70
2018-05-02T02:45:23.547Z,6.97
2018-05-02T02:47:50.459Z,6.97
2018-05-02T02:50:17.213Z,7.43
2018-05-02T02:52:43.279Z,7.37
2018-05-02T02:55:09.386Z,6.97
2018-05-02T02:57:35.464Z,8.00
2018-05-02T03:00:02.285Z,7.30
2018-05-02T03:02:28.398Z,7.47
2018-05-02T03:04:54.471Z,9.10
2018-05-02T03:07:20.544Z,8.13
2018-05-02T03:09:47.390Z,9.00
2018-05-02T03:12:13.484Z,8.73
2018-05-02T03:14:39.542Z,8.83
2018-05-02T03:17:05.674Z,9.30
2018-05-02T03:19:31.777Z,10.03
2018-05-02T03:21:57.898Z,10.17
2018-05-02T03:24:24.012Z,10.00
2018-05-02T03:26:50.823Z,10.10
2018-05-02T03:29:16.895Z,9.80
2018-05-02T03:31:43.743Z,9.00
2018-05-02T03:34:09.817Z,9.40
2018-05-02T03:36:35.894Z,9.83
2018-05-02T03:39:02.012Z,8.80
2018-05-02T03:41:28.079Z,10.00
2018-05-02T03:43:54.151Z,8.50
2018-05-02T03:46:20.989Z,9.70
2018-05-02T03:48:47.067Z,9.23
2018-05-02T03:51:13.152Z,10.20
2018-05-02T03:53:39.261Z,9.70
2018-05-02T03:56:05.348Z,9.20
2018-05-02T03:58:32.192Z,8.93
2018-05-02T04:01:10.750Z,9.43
2018-05-02T04:03:49.327Z,9.53
2018-05-02T04:06:27.763Z,9.57
2018-05-02T04:08:53.847Z,10.60
2018-05-02T04:11:19.929Z,10.70
2018-05-02T04:13:46.055Z,9.87
2018-05-02T04:16:12.120Z,11.00
2018-05-02T04:18:38.235Z,11.20
2018-05-02T04:21:04.350Z,9.23
2018-05-02T04:23:30.471Z,11.33
2018-05-02T04:25:56.547Z,10.50
2018-05-02T04:28:22.684Z,11.13
2018-05-02T04:30:48.788Z,11.27
2018-05-02T04:33:14.867Z,11.73
2018-05-02T04:35:41.000Z,11.67
2018-05-02T04:38:07.072Z,11.20
2018-05-02T04:40:33.152Z,11.53
2018-05-02T04:42:59.259Z,10.33
2018-05-02T04:45:26.086Z,10.73
2018-05-02T04:47:52.156Z,11.20
2018-05-02T04:50:19.017Z,10.73
2018-05-02T04:52:45.885Z,10.40
2018-05-02T04:55:12.659Z,12.00
2018-05-02T04:57:38.759Z,10.90
2018-05-02T05:00:05.567Z,10.90
2018-05-02T05:02:31.644Z,11.17
2018-05-02T05:04:58.487Z,10.47
2018-05-02T05:07:24.896Z,10.50
2018-05-02T05:09:50.974Z,10.43
2018-05-02T05:12:17.377Z,10.80
2018-05-02T05:14:43.431Z,10.07
2018-05-02T05:17:09.547Z,10.17
2018-05-02T05:19:36.242Z,9.60
2018-05-02T05:22:04.797Z,9.90
2018-05-02T05:24:32.629Z,9.97
2018-05-02T05:26:59.557Z,9.73
2018-05-02T05:29:25.724Z,11.20
2018-05-02T05:31:51.861Z,10.73
2018-05-02T05:34:19.098Z,9.60
2018-05-02T05:36:45.219Z,9.40
2018-05-02T05:39:11.287Z,9.20
2018-05-02T05:41:37.869Z,8.87
2018-05-02T05:44:04.007Z,9.00
2018-05-02T05:46:31.077Z,8.53
2018-05-02T05:48:57.390Z,9.17
2018-05-02T05:51:25.406Z,9.20
2018-05-02T05:53:51.524Z,10.50
2018-05-02T05:56:18.722Z,9.60
2018-05-02T05:58:44.797Z,9.50
2018-05-02T06:01:12.743Z,9.53
2018-05-02T06:03:38.859Z,8.50
2018-05-02T06:06:06.218Z,8.70
2018-05-02T06:08:33.230Z,9.47
2018-05-02T06:10:59.354Z,8.90
2018-05-02T06:13:25.482Z,8.63
2018-05-02T06:15:51.568Z,9.70
2018-05-02T06:18:17.682Z,7.93
2018-05-02T06:20:43.796Z,8.57
2018-05-02T06:23:09.880Z,7.40
2018-05-02T06:25:36.020Z,8.10
2018-05-02T06:28:02.108Z,7.63
2018-05-02T06:30:28.326Z,7.30
2018-05-02T06:32:54.472Z,8.00
2018-05-02T06:35:20.576Z,8.23
2018-05-02T06:37:46.750Z,8.00
2018-05-02T06:40:12.818Z,8.03
2018-05-02T06:42:38.927Z,7.83
2018-05-02T06:45:04.994Z,8.60
2018-05-02T06:47:31.091Z,7.93
2018-05-02T06:49:57.932Z,8.03
2018-05-02T06:52:24.831Z,8.20
2018-05-02T06:54:50.932Z,7.93
2018-05-02T06:57:17.919Z,6.27
2018-05-02T06:59:43.996Z,8.80
2018-05-02T07:02:10.194Z,7.67
2018-05-02T07:04:36.268Z,7.37
2018-05-02T07:07:02.431Z,7.20
2018-05-02T07:09:28.548Z,6.80
2018-05-02T07:11:58.014Z,6.80
2018-05-02T07:14:24.171Z,6.87
2018-05-02T07:16:50.292Z,7.10
2018-05-02T07:19:16.412Z,6.13
2018-05-02T07:21:43.518Z,7.40
2018-05-02T07:24:10.139Z,6.33
2018-05-02T07:26:36.259Z,7.70
2018-05-02T07:29:03.085Z,7.40
2018-05-02T07:31:29.228Z,8.17
2018-05-02T07:33:55.371Z,6.13
2018-05-02T07:36:21.549Z,7.30
2018-05-02T07:38:48.350Z,7.63
2018-05-02T07:41:14.632Z,7.17
2018-05-02T07:43:40.796Z,6.20
2018-05-02T07:46:06.930Z,7.13
2018-05-02T07:48:33.165Z,7.53
2018-05-02T07:51:00.144Z,6.80
2018-05-02T07:53:26.575Z,7.27
2018-05-02T07:55:53.161Z,6.80
2018-05-02T07:58:19.465Z,6.80
2018-05-02T08:00:46.758Z,6.57
2018-05-02T08:03:13.397Z,6.23
2018-05-02T08:05:39.637Z,7.07
2018-05-02T08:08:05.744Z,6.30
2018-05-02T08:10:31.840Z,7.00
2018-05-02T08:12:57.935Z,6.43
2018-05-02T08:15:24.038Z,6.43
2018-05-02T08:17:50.134Z,6.30
2018-05-02T08:20:16.216Z,6.80
2018-05-02T08:22:42.347Z,7.00
2018-05-02T08:25:08.427Z,6.17
2018-05-02T08:27:35.190Z,7.00
2018-05-02T08:30:01.717Z,5.70
2018-05-02T08:32:27.794Z,5.67
2018-05-02T08:34:53.850Z,6.30
2018-05-02T08:37:19.969Z,6.00
2018-05-02T08:39:46.078Z,7.13
2018-05-02T08:42:12.162Z,5.77
2018-05-02T08:44:38.267Z,6.03
2018-05-02T08:47:04.350Z,4.83
2018-05-02T08:49:31.248Z,5.20
2018-05-02T08:51:57.358Z,5.30
2018-05-02T08:54:24.186Z,7.57
2018-05-02T08:56:50.335Z,6.30
2018-05-02T08:59:17.222Z,6.50
2018-05-02T09:01:43.359Z,5.50
2018-05-02T09:04:09.456Z,4.73
2018-05-02T09:06:35.543Z,5.40
2018-05-02T09:09:01.632Z,5.17
2018-05-02T09:11:27.723Z,5.03
2018-05-02T09:13:53.828Z,4.30
2018-05-02T09:16:20.645Z,4.77
2018-05-02T09:18:46.747Z,4.80
2018-05-02T09:21:13.116Z,4.30
2018-05-02T09:23:39.196Z,5.50
2018-05-02T09:26:06.007Z,5.77
2018-05-02T09:28:32.115Z,5.70
2018-05-02T09:30:58.192Z,4.90
2018-05-02T09:33:24.265Z,4.83
2018-05-02T09:35:51.122Z,5.83
2018-05-02T09:38:17.221Z,4.80
2018-05-02T09:40:43.298Z,5.00
2018-05-02T09:43:10.148Z,5.60
2018-05-02T09:45:36.963Z,4.50
2018-05-02T09:48:03.059Z,4.80
2018-05-02T09:50:29.174Z,5.00
2018-05-02T09:52:56.005Z,4.70
2018-05-02T09:55:22.090Z,4.40
2018-05-02T09:57:48.237Z,4.83
2018-05-02T10:00:14.340Z,5.10
2018-05-02T10:02:41.185Z,4.30
2018-05-02T10:05:07.311Z,5.20
2018-05-02T10:07:33.442Z,6.07
2018-05-02T10:09:59.562Z,6.27
2018-05-02T10:12:25.775Z,8.17
2018-05-02T10:14:51.824Z,5.20
2018-05-02T10:17:17.929Z,6.27
2018-05-02T10:19:44.845Z,7.20
2018-05-02T10:22:10.945Z,5.83
2018-05-02T10:24:37.050Z,6.40
2018-05-02T10:27:03.183Z,6.03
2018-05-02T10:29:29.279Z,4.87
2018-05-02T10:31:55.396Z,4.93
2018-05-02T10:34:21.545Z,6.03
2018-05-02T10:36:47.698Z,4.53
2018-05-02T10:39:13.827Z,4.27
2018-05-02T10:41:39.957Z,5.17
2018-05-02T10:44:06.047Z,4.90
2018-05-02T10:46:32.134Z,5.40
2018-05-02T10:48:58.251Z,4.70
2018-05-02T10:51:25.076Z,6.10
2018-05-02T10:53:51.172Z,5.40
2018-05-02T10:56:17.321Z,5.10
2018-05-02T10:58:43.447Z,7.80
2018-05-02T11:01:09.532Z,6.60
2018-05-02T11:03:35.663Z,6.30
2018-05-02T11:06:01.796Z,12.97
2018-05-02T11:08:27.918Z,6.07
2018-05-02T11:10:54.027Z,5.50
2018-05-02T11:13:20.154Z,4.27
2018-05-02T11:15:46.270Z,4.93
2018-05-02T11:18:12.421Z,3.70
2018-05-02T11:20:39.280Z,3.93
2018-05-02T11:23:06.192Z,4.80
2018-05-02T11:25:32.332Z,4.63
2018-05-02T11:27:58.440Z,3.50
2018-05-02T11:30:24.548Z,4.23
2018-05-02T11:32:51.424Z,3.33
2018-05-02T11:35:17.561Z,2.70
2018-05-02T11:37:43.700Z,2.93
2018-05-02T11:40:09.876Z,3.10
2018-05-02T11:42:35.988Z,3.90
2018-05-02T11:45:02.081Z,3.13
2018-05-02T11:47:28.510Z,3.13
2018-05-02T11:49:54.769Z,3.80
2018-05-02T11:52:21.136Z,4.33
2018-05-02T11:54:47.262Z,3.43
2018-05-02T11:57:13.444Z,2.80
2018-05-02T11:59:39.552Z,4.20
2018-05-02T12:02:05.791Z,5.53
2018-05-02T12:04:31.887Z,2.80
2018-05-02T12:06:58.000Z,3.67
2018-05-02T12:09:24.126Z,4.47
2018-05-02T12:11:50.200Z,3.60
2018-05-02T12:14:16.288Z,4.20
2018-05-02T12:16:42.420Z,4.00
2018-05-02T12:19:08.504Z,4.63
2018-05-02T12:21:34.624Z,4.47
2018-05-02T12:24:00.750Z,4.40
2018-05-02T12:26:26.830Z,5.37
2018-05-02T12:28:52.915Z,5.20
2018-05-02T12:31:19.079Z,6.90
2018-05-02T12:33:45.177Z,5.60
2018-05-02T12:36:11.274Z,6.30
2018-05-02T12:38:37.404Z,5.60
2018-05-02T12:41:03.496Z,6.43
2018-05-02T12:43:29.584Z,7.00
2018-05-02T12:45:55.691Z,7.17
2018-05-02T12:48:21.790Z,6.37
2018-05-02T12:50:48.615Z,8.63
2018-05-02T12:53:14.870Z,8.47
2018-05-02T12:55:40.983Z,6.80
2018-05-02T12:58:07.063Z,9.47
2018-05-02T13:00:33.908Z,7.00
2018-05-02T13:03:00.000Z,6.30
2018-05-02T13:05:26.087Z,6.00
2018-05-02T13:07:53.005Z,7.60
2018-05-02T13:10:19.096Z,5.73
2018-05-02T13:12:45.203Z,5.53
2018-05-02T13:15:11.331Z,5.30
2018-05-02T13:17:37.469Z,4.93
2018-05-02T13:20:03.580Z,6.43
2018-05-02T13:22:29.708Z,5.60
2018-05-02T13:24:55.773Z,4.90
2018-05-02T13:27:21.860Z,5.30
2018-05-02T13:29:48.739Z,4.60
2018-05-02T13:32:14.993Z,4.13
2018-05-02T13:34:41.096Z,4.00
2018-05-02T13:37:07.234Z,3.70
2018-05-02T13:39:33.342Z,5.63
2018-05-02T13:41:59.482Z,3.90
2018-05-02T13:44:25.629Z,3.17
2018-05-02T13:46:51.778Z,4.00
2018-05-02T13:49:18.607Z,3.73
2018-05-02T13:51:44.734Z,3.47
2018-05-02T13:54:10.803Z,2.67
2018-05-02T13:56:37.614Z,3.77
2018-05-02T13:59:03.733Z,4.70
2018-05-02T14:01:29.811Z,3.23
2018-05-02T14:03:55.890Z,3.40
2018-05-02T14:06:22.010Z,2.73
2018-05-02T14:08:48.837Z,3.23
2018-05-02T14:11:14.919Z,2.40
2018-05-02T14:13:41.048Z,3.13
2018-05-02T14:16:07.898Z,3.97
2018-05-02T14:18:34.749Z,3.20
2018-05-02T14:21:01.673Z,3.80
2018-05-02T14:23:27.755Z,3.80
2018-05-02T14:25:53.814Z,3.50
2018-05-02T14:28:19.903Z,3.57
2018-05-02T14:30:45.970Z,2.77
2018-05-02T14:33:12.055Z,3.13
2018-05-02T14:35:38.154Z,2.57
2018-05-02T14:38:04.285Z,2.60
2018-05-02T14:40:30.367Z,2.93
2018-05-02T14:42:56.471Z,4.10
2018-05-02T14:45:22.551Z,4.57
2018-05-02T14:47:48.655Z,3.30
2018-05-02T14:50:14.745Z,2.97
2018-05-02T14:52:40.846Z,3.00
2018-05-02T14:55:06.940Z,3.63
2018-05-02T14:57:33.788Z,3.20
2018-05-02T15:00:00.635Z,4.53
2018-05-02T15:02:26.710Z,2.60
2018-05-02T15:04:52.811Z,4.90
2018-05-02T15:07:19.700Z,4.50
2018-05-02T15:09:45.789Z,5.70
2018-05-02T15:12:11.889Z,3.90
2018-05-02T15:14:37.960Z,3.00
2018-05-02T15:17:04.035Z,6.40
2018-05-02T15:19:30.131Z,3.27
2018-05-02T15:21:56.203Z,3.83
2018-05-02T15:24:23.002Z,3.70
2018-05-02T15:26:49.122Z,4.90
2018-05-02T15:29:15.533Z,4.50
2018-05-02T15:31:41.657Z,3.60
2018-05-02T15:34:07.769Z,3.60
2018-05-02T15:36:33.880Z,3.40
2018-05-02T15:38:59.963Z,3.50
2018-05-02T15:41:26.104Z,3.80
2018-05-02T15:43:52.170Z,4.20
2018-05-02T15:46:19.008Z,3.30
2018-05-02T15:48:45.864Z,3.60
2018-05-02T15:51:11.961Z,3.67
2018-05-02T15:53:38.188Z,3.80
2018-05-02T15:56:04.284Z,4.37
2018-05-02T15:58:31.231Z,6.43
2018-05-02T16:00:58.273Z,4.03
2018-05-02T16:03:25.148Z,4.20
2018-05-02T16:05:51.232Z,3.90
2018-05-02T16:08:17.433Z,3.80
2018-05-02T16:10:44.350Z,4.30
2018-05-02T16:13:10.428Z,4.03
2018-05-02T16:15:37.259Z,4.90
2018-05-02T16:18:03.394Z,4.70
2018-05-02T16:20:29.476Z,4.30
2018-05-02T16:22:56.656Z,3.90
2018-05-02T16:25:22.755Z,3.67
2018-05-02T16:27:50.056Z,4.30
2018-05-02T16:30:17.117Z,4.17
2018-05-02T16:32:43.256Z,4.20
2018-05-02T16:35:09.382Z,4.23
2018-05-02T16:37:35.447Z,4.77
2018-05-02T16:40:01.567Z,4.80
2018-05-02T16:42:27.656Z,4.90
2018-05-02T16:44:53.753Z,3.90
2018-05-02T16:47:19.846Z,4.33
2018-05-02T16:49:46.728Z,4.40
2018-05-02T16:52:12.833Z,5.83
2018-05-02T16:54:38.952Z,4.30
2018-05-02T16:57:05.024Z,4.33
2018-05-02T16:59:31.934Z,5.00
2018-05-02T17:01:58.049Z,9.00
2018-05-02T17:04:24.157Z,6.73
2018-05-02T17:06:50.964Z,5.10
2018-05-02T17:09:17.114Z,4.67
2018-05-02T17:11:43.200Z,5.13
2018-05-02T17:14:09.271Z,5.00
2018-05-02T17:16:35.375Z,5.10
2018-05-02T17:19:01.460Z,4.73
2018-05-02T17:21:27.555Z,5.00
2018-05-02T17:23:55.000Z,5.10
2018-05-02T17:26:21.827Z,5.50
2018-05-02T17:28:48.045Z,6.00
2018-05-02T17:31:14.184Z,5.70
2018-05-02T17:33:40.279Z,5.63
2018-05-02T17:36:06.359Z,7.20
2018-05-02T17:38:34.355Z,8.23
2018-05-02T17:41:01.647Z,6.30
2018-05-02T17:43:27.788Z,5.63
2018-05-02T17:45:54.724Z,5.27
2018-05-02T17:48:21.823Z,5.33
2018-05-02T17:50:55.076Z,6.33
2018-05-02T17:53:22.261Z,4.63
2018-05-02T17:55:49.275Z,5.70
2018-05-02T17:58:16.624Z,6.30
2018-05-02T18:00:43.736Z,5.80
2018-05-02T18:03:10.413Z,6.60
2018-05-02T18:05:37.945Z,6.50
2018-05-02T18:08:05.412Z,5.20
2018-05-02T18:10:32.565Z,6.33
2018-05-02T18:13:00.552Z,7.47
2018-05-02T18:15:28.749Z,7.40
2018-05-02T18:17:59.494Z,8.40
2018-05-02T18:20:28.035Z,6.50
2018-05-02T18:22:54.261Z,6.77
2018-05-02T18:25:24.100Z,7.27
2018-05-02T18:27:50.444Z,6.50
2018-05-02T18:30:16.807Z,5.43
2018-05-02T18:32:44.708Z,5.40
2018-05-02T18:35:12.176Z,5.70
2018-05-02T18:37:38.998Z,6.17
2018-05-02T18:40:05.104Z,6.07
2018-05-02T18:42:31.243Z,5.50
2018-05-02T18:44:57.316Z,6.20
2018-05-02T18:47:23.407Z,6.97
2018-05-02T18:49:49.568Z,7.00
2018-05-02T18:52:16.515Z,5.43
2018-05-02T18:54:44.801Z,5.33
2018-05-02T18:57:11.169Z,5.60
2018-05-02T18:59:37.327Z,5.60
2018-05-02T19:02:03.400Z,4.90
2018-05-02T19:04:29.522Z,5.80
2018-05-02T19:06:56.431Z,6.17
2018-05-02T19:09:22.537Z,6.30
2018-05-02T19:11:48.659Z,6.20
2018-05-02T19:14:15.485Z,6.23
2018-05-02T19:16:41.551Z,6.10
2018-05-02T19:19:14.875Z,7.13
2018-05-02T19:21:41.055Z,6.20
2018-05-02T19:24:07.126Z,6.03
2018-05-02T19:26:35.974Z,6.20
2018-05-02T19:29:02.090Z,6.40
2018-05-02T19:31:34.680Z,6.70
2018-05-02T19:34:00.803Z,5.00
2018-05-02T19:36:27.694Z,5.43
2018-05-02T19:38:56.849Z,5.40
2018-05-02T19:41:29.931Z,5.93
2018-05-02T19:44:02.973Z,5.77
2018-05-02T19:46:29.831Z,6.20
2018-05-02T19:48:55.914Z,5.70
2018-05-02T19:51:28.363Z,5.53
2018-05-02T19:53:54.930Z,6.27
2018-05-02T19:56:21.027Z,5.80
2018-05-02T19:58:47.870Z,5.27
2018-05-02T20:01:19.941Z,6.43
2018-05-02T20:03:46.831Z,6.80
2018-05-02T20:06:13.172Z,6.43
2018-05-02T20:08:45.645Z,6.50
2018-05-02T20:14:20.577Z,6.00
2018-05-02T20:16:46.838Z,6.70
2018-05-02T20:19:13.482Z,6.07
2018-05-02T20:21:40.215Z,5.70
2018-05-02T20:24:06.297Z,7.00
2018-05-02T20:26:32.527Z,5.60
2018-05-02T20:28:59.509Z,5.67
2018-05-02T20:31:25.739Z,7.40
2018-05-02T20:33:52.598Z,5.40
2018-05-02T20:36:19.509Z,6.07
2018-05-02T20:38:45.746Z,6.73
2018-05-02T20:41:12.250Z,6.77
2018-05-02T20:43:39.116Z,8.03
2018-05-02T20:46:05.325Z,5.80
2018-05-02T20:48:31.396Z,8.23
2018-05-02T20:50:57.520Z,6.40
2018-05-02T20:53:24.410Z,7.37
2018-05-02T20:55:51.748Z,10.50
2018-05-02T20:58:18.116Z,12.13
2018-05-02T21:00:44.321Z,6.30
2018-05-02T21:03:11.355Z,19.90
2018-05-02T21:05:37.482Z,18.53
2018-05-02T21:08:03.824Z,8.23
2018-05-02T21:10:31.153Z,9.93
2018-05-02T21:12:57.375Z,21.80
2018-05-02T21:15:25.309Z,10.70
2018-05-02T21:17:52.777Z,15.20
2018-05-02T21:20:19.702Z,9.13
2018-05-02T21:22:45.798Z,9.90
2018-05-02T21:25:11.879Z,9.70
2018-05-02T21:27:38.376Z,9.43
2018-05-02T21:30:05.063Z,12.27
2018-05-02T21:32:31.671Z,9.60
2018-05-02T21:34:58.751Z,13.30
2018-05-02T21:37:25.630Z,8.03
2018-05-02T21:39:52.475Z,17.17
2018-05-02T21:42:20.117Z,6.27
2018-05-02T21:44:46.216Z,13.07
2018-05-02T21:47:12.349Z,8.10
2018-05-02T21:49:38.436Z,7.73
2018-05-02T21:52:04.698Z,7.50
2018-05-02T21:54:31.534Z,8.80
2018-05-02T21:56:59.637Z,6.80
2018-05-02T21:59:25.775Z,8.87
2018-05-02T22:01:52.611Z,6.80
2018-05-02T22:04:19.089Z,8.27
2018-05-02T22:06:45.847Z,8.13
2018-05-02T22:09:11.962Z,7.17
2018-05-02T22:11:40.246Z,7.13
2018-05-02T22:14:07.698Z,7.50
2018-05-02T22:16:34.910Z,7.80
2018-05-02T22:19:01.050Z,7.10
2018-05-02T22:21:27.421Z,8.37
2018-05-02T22:23:53.511Z,7.30
2018-05-02T22:26:20.478Z,7.77
2018-05-02T22:28:47.714Z,7.40
2018-05-02T22:31:14.253Z,7.00
2018-05-02T22:33:40.418Z,9.90
2018-05-02T22:36:07.233Z,10.47
2018-05-02T22:38:33.373Z,7.33
2018-05-02T22:40:59.553Z,9.27
2018-05-02T22:43:26.380Z,8.47
2018-05-02T22:45:52.465Z,8.30
2018-05-02T22:48:18.579Z,7.47
2018-05-02T22:50:45.443Z,7.97
2018-05-02T22:53:12.288Z,7.40
2018-05-02T22:55:39.127Z,8.40
2018-05-02T22:58:05.270Z,8.23
2018-05-02T23:00:32.138Z,10.67
2018-05-02T23:02:58.973Z,8.57
2018-05-02T23:05:25.040Z,15.57
2018-05-02T23:07:51.897Z,9.93
2018-05-02T23:10:18.815Z,8.13
2018-05-02T23:12:45.332Z,7.50
2018-05-02T23:15:11.420Z,7.80
2018-05-02T23:17:37.539Z,7.57
2018-05-02T23:20:03.616Z,7.93
2018-05-02T23:22:30.882Z,8.30
2018-05-02T23:24:57.808Z,7.97
2018-05-02T23:27:24.294Z,7.27
2018-05-02T23:29:50.746Z,8.10
2018-05-02T23:32:16.916Z,8.10
2018-05-02T23:34:43.039Z,8.70
2018-05-02T23:37:09.133Z,8.03
2018-05-02T23:39:36.076Z,8.47
2018-05-02T23:42:02.174Z,7.93
2018-05-02T23:44:28.259Z,7.83
2018-05-02T23:46:55.122Z,8.80
2018-05-02T23:49:22.179Z,10.00
2018-05-02T23:51:49.266Z,12.47
2018-05-02T23:54:15.430Z,14.27
2018-05-02T23:56:41.566Z,11.20
2018-05-02T23:59:07.652Z,12.40
